createdAt,value
2017-08-28T00:00:39.279Z,9.70
2017-08-28T00:03:13.307Z,9.30
2017-08-28T00:05:47.490Z,10.00
2017-08-28T00:08:21.970Z,9.53
2017-08-28T00:10:56.843Z,10.03
2017-08-28T00:13:31.013Z,10.00
2017-08-28T00:16:04.807Z,9.80
2017-08-28T00:18:38.395Z,10.47
2017-08-28T00:21:12.531Z,10.23
2017-08-28T00:23:46.741Z,10.47
2017-08-28T00:26:20.739Z,10.50
2017-08-28T00:28:54.949Z,10.93
2017-08-28T00:31:29.130Z,10.90
2017-08-28T00:34:03.362Z,10.50
2017-08-28T00:36:37.366Z,11.73
2017-08-28T00:39:11.577Z,11.23
2017-08-28T00:41:45.746Z,10.67
2017-08-28T00:44:20.044Z,11.97
2017-08-28T00:46:54.091Z,10.90
2017-08-28T00:49:28.233Z,11.50
2017-08-28T00:52:03.198Z,10.13
2017-08-28T00:54:37.331Z,11.20
2017-08-28T00:57:11.398Z,11.87
2017-08-28T00:59:45.660Z,11.67
2017-08-28T01:02:19.991Z,11.10
2017-08-28T01:04:54.091Z,12.07
2017-08-28T01:07:28.246Z,12.37
2017-08-28T01:10:02.394Z,12.80
2017-08-28T01:12:36.487Z,11.70
2017-08-28T01:15:10.912Z,11.43
2017-08-28T01:17:44.874Z,12.40
2017-08-28T01:20:19.299Z,11.50
2017-08-28T01:22:53.113Z,11.30
2017-08-28T01:25:27.210Z,11.40
2017-08-28T01:28:00.900Z,12.00
2017-08-28T01:30:34.673Z,10.93
2017-08-28T01:33:08.917Z,12.00
2017-08-28T01:35:42.882Z,12.20
2017-08-28T01:38:17.135Z,13.00
2017-08-28T01:40:51.182Z,12.10
2017-08-28T01:43:25.182Z,12.53
2017-08-28T01:45:59.310Z,12.23
2017-08-28T01:48:33.403Z,12.53
2017-08-28T01:51:07.410Z,12.60
2017-08-28T01:53:41.564Z,12.27
2017-08-28T01:56:15.673Z,12.43
2017-08-28T01:58:49.721Z,12.10
2017-08-28T02:01:23.966Z,13.00
2017-08-28T02:03:57.935Z,12.40
2017-08-28T02:06:32.174Z,12.60
2017-08-28T02:09:06.273Z,13.63
2017-08-28T02:11:39.962Z,11.93
2017-08-28T02:14:13.730Z,11.83
2017-08-28T02:16:47.799Z,12.17
2017-08-28T02:19:22.026Z,11.40
2017-08-28T02:21:56.428Z,11.87
2017-08-28T02:24:29.881Z,11.80
2017-08-28T02:27:04.278Z,11.80
2017-08-28T02:29:38.446Z,10.87
2017-08-28T02:32:12.439Z,12.60
2017-08-28T02:34:45.800Z,11.90
2017-08-28T02:37:19.269Z,12.33
2017-08-28T02:39:53.036Z,12.07
2017-08-28T02:42:27.345Z,12.10
2017-08-28T02:45:01.373Z,12.50
2017-08-28T02:47:35.413Z,11.67
2017-08-28T02:50:09.511Z,12.20
2017-08-28T02:52:43.623Z,11.63
2017-08-28T02:55:17.721Z,12.43
2017-08-28T02:57:51.586Z,12.27
2017-08-28T03:00:25.796Z,12.80
2017-08-28T03:02:59.375Z,11.97
2017-08-28T03:05:33.771Z,12.30
2017-08-28T03:08:07.818Z,12.33
2017-08-28T03:10:42.031Z,12.80
2017-08-28T03:13:15.556Z,13.37
2017-08-28T03:15:49.075Z,12.50
2017-08-28T03:18:23.253Z,12.77
2017-08-28T03:20:57.320Z,12.23
2017-08-28T03:23:31.679Z,13.10
2017-08-28T03:26:05.876Z,13.10
2017-08-28T03:28:39.949Z,12.40
2017-08-28T03:31:13.982Z,11.93
2017-08-28T03:33:48.111Z,11.67
2017-08-28T03:36:21.668Z,12.50
2017-08-28T03:38:55.964Z,12.07
2017-08-28T03:41:29.757Z,12.27
2017-08-28T03:44:04.271Z,12.33
2017-08-28T03:46:37.755Z,12.30
2017-08-28T03:49:11.889Z,12.57
2017-08-28T03:51:45.821Z,12.63
2017-08-28T03:54:19.984Z,12.50
2017-08-28T03:56:53.709Z,12.13
2017-08-28T03:59:27.933Z,12.90
2017-08-28T04:02:02.208Z,12.37
2017-08-28T04:04:36.267Z,13.77
2017-08-28T04:07:10.203Z,12.80
2017-08-28T04:09:44.341Z,12.60
2017-08-28T04:12:18.293Z,12.53
2017-08-28T04:14:52.609Z,12.07
2017-08-28T04:17:26.879Z,12.60
2017-08-28T04:20:00.833Z,12.27
2017-08-28T04:22:34.892Z,13.10
2017-08-28T04:25:08.644Z,13.40
2017-08-28T04:27:42.724Z,11.80
2017-08-28T04:30:16.663Z,12.93
2017-08-28T04:32:50.624Z,12.77
2017-08-28T04:35:24.574Z,12.57
2017-08-28T04:37:58.423Z,12.90
2017-08-28T04:40:32.543Z,12.30
2017-08-28T04:43:06.840Z,12.17
2017-08-28T04:45:41.341Z,12.40
2017-08-28T04:48:15.487Z,11.97
2017-08-28T04:50:49.707Z,12.50
2017-08-28T04:53:23.991Z,12.50
2017-08-28T04:55:57.985Z,12.07
2017-08-28T04:58:31.415Z,12.30
2017-08-28T05:01:05.077Z,11.57
2017-08-28T05:03:39.506Z,12.80
2017-08-28T05:06:13.451Z,12.50
2017-08-28T05:08:47.128Z,12.20
2017-08-28T05:11:21.528Z,11.10
2017-08-28T05:13:55.809Z,11.53
2017-08-28T05:16:29.856Z,12.37
2017-08-28T05:19:04.028Z,11.70
2017-08-28T05:21:38.528Z,12.00
2017-08-28T05:24:12.547Z,12.20
2017-08-28T05:26:46.179Z,12.27
2017-08-28T05:29:20.304Z,11.53
2017-08-28T05:31:54.335Z,12.77
2017-08-28T05:34:28.210Z,11.53
2017-08-28T05:37:02.163Z,12.40
2017-08-28T05:39:36.128Z,11.67
2017-08-28T05:42:10.187Z,11.60
2017-08-28T05:44:44.284Z,11.23
2017-08-28T05:47:18.420Z,11.40
2017-08-28T05:49:52.869Z,11.47
2017-08-28T05:52:27.071Z,11.50
2017-08-28T05:55:01.276Z,12.60
2017-08-28T05:57:35.402Z,11.97
2017-08-28T06:00:09.579Z,11.37
2017-08-28T06:02:43.991Z,10.40
2017-08-28T06:05:17.969Z,11.27
2017-08-28T06:07:51.852Z,12.23
2017-08-28T06:10:25.827Z,11.50
2017-08-28T06:12:59.804Z,12.87
2017-08-28T06:15:33.926Z,10.90
2017-08-28T06:18:08.291Z,10.70
2017-08-28T06:20:42.388Z,11.70
2017-08-28T06:23:16.108Z,10.80
2017-08-28T06:25:50.465Z,12.50
2017-08-28T06:28:24.769Z,10.87
2017-08-28T06:30:58.740Z,10.50
2017-08-28T06:33:32.881Z,10.00
2017-08-28T06:36:07.316Z,9.67
2017-08-28T06:38:41.813Z,10.30
2017-08-28T06:41:16.015Z,10.53
2017-08-28T06:43:49.987Z,10.20
2017-08-28T06:46:24.045Z,10.03
2017-08-28T06:48:57.998Z,10.10
2017-08-28T06:51:32.241Z,9.70
2017-08-28T06:54:06.301Z,9.27
2017-08-28T06:56:40.648Z,9.00
2017-08-28T06:59:14.702Z,8.63
2017-08-28T07:01:48.575Z,8.90
2017-08-28T07:04:22.670Z,9.37
2017-08-28T07:06:56.636Z,9.20
2017-08-28T07:09:30.808Z,8.70
2017-08-28T07:12:05.227Z,8.60
2017-08-28T07:14:39.211Z,9.10
2017-08-28T07:17:13.409Z,8.73
2017-08-28T07:19:47.379Z,9.37
2017-08-28T07:22:21.435Z,8.77
2017-08-28T07:24:55.276Z,9.30
2017-08-28T07:27:29.352Z,8.80
2017-08-28T07:30:03.161Z,8.50
2017-08-28T07:32:37.211Z,8.47
2017-08-28T07:35:11.480Z,8.30
2017-08-28T07:37:45.845Z,8.00
2017-08-28T07:40:20.021Z,8.53
2017-08-28T07:42:54.069Z,7.60
2017-08-28T07:45:28.548Z,8.23
2017-08-28T07:48:02.665Z,8.03
2017-08-28T07:50:36.756Z,8.17
2017-08-28T07:53:11.071Z,8.40
2017-08-28T07:55:45.375Z,8.30
2017-08-28T07:58:19.591Z,7.63
2017-08-28T08:00:53.692Z,7.00
2017-08-28T08:03:27.797Z,7.00
2017-08-28T08:06:01.952Z,8.10
2017-08-28T08:08:36.387Z,7.77
2017-08-28T08:11:09.904Z,13.40
2017-08-28T08:13:44.410Z,7.23
2017-08-28T08:16:18.584Z,8.70
2017-08-28T08:18:52.678Z,7.70
2017-08-28T08:21:27.080Z,7.70
2017-08-28T08:24:00.697Z,6.97
2017-08-28T08:26:34.341Z,7.60
2017-08-28T08:29:07.904Z,7.40
2017-08-28T08:31:41.568Z,7.37
2017-08-28T08:34:25.538Z,7.30
2017-08-28T08:36:59.225Z,7.53
2017-08-28T08:39:33.568Z,7.70
2017-08-28T08:42:08.060Z,7.73
2017-08-28T08:44:42.217Z,6.70
2017-08-28T08:47:16.263Z,7.13
2017-08-28T08:49:50.484Z,6.40
2017-08-28T08:52:24.412Z,7.00
2017-08-28T08:54:58.055Z,7.10
2017-08-28T08:57:32.075Z,6.97
2017-08-28T09:00:06.472Z,6.07
2017-08-28T09:02:40.481Z,7.50
2017-08-28T09:05:14.624Z,9.50
2017-08-28T09:07:48.809Z,7.77
2017-08-28T09:10:22.924Z,7.03
2017-08-28T09:12:57.181Z,7.90
2017-08-28T09:15:31.131Z,7.97
2017-08-28T09:18:05.288Z,7.53
2017-08-28T09:20:38.848Z,7.53
2017-08-28T09:23:12.246Z,7.70
2017-08-28T09:25:46.196Z,7.60
2017-08-28T09:28:20.036Z,7.80
2017-08-28T09:30:53.881Z,6.90
2017-08-28T09:33:27.697Z,7.30
2017-08-28T09:36:01.900Z,6.90
2017-08-28T09:38:36.278Z,7.80
2017-08-28T09:41:10.323Z,6.80
2017-08-28T09:43:44.343Z,6.90
2017-08-28T09:46:18.478Z,6.90
2017-08-28T09:48:52.891Z,7.23
2017-08-28T09:51:27.089Z,7.03
2017-08-28T09:54:01.564Z,7.17
2017-08-28T09:56:35.569Z,6.93
2017-08-28T09:59:09.664Z,6.57
2017-08-28T10:01:43.956Z,6.57
2017-08-28T10:04:17.898Z,7.50
2017-08-28T10:06:52.087Z,6.23
2017-08-28T10:09:26.079Z,6.67
2017-08-28T10:12:00.144Z,7.43
2017-08-28T10:14:34.279Z,6.50
2017-08-28T10:17:08.463Z,6.93
2017-08-28T10:19:42.507Z,7.97
2017-08-28T10:22:16.712Z,6.70
2017-08-28T10:24:50.981Z,6.77
2017-08-28T10:27:24.681Z,7.00
2017-08-28T10:29:58.399Z,6.80
2017-08-28T10:32:31.984Z,6.23
2017-08-28T10:35:06.028Z,6.87
2017-08-28T10:37:40.207Z,6.23
2017-08-28T10:40:14.352Z,6.87
2017-08-28T10:42:48.530Z,6.73
2017-08-28T10:45:22.655Z,6.33
2017-08-28T10:47:56.693Z,6.10
2017-08-28T10:50:30.671Z,6.67
2017-08-28T10:53:10.379Z,6.03
2017-08-28T10:55:44.328Z,7.23
2017-08-28T10:58:18.728Z,6.93
2017-08-28T11:00:52.683Z,6.80
2017-08-28T11:03:26.695Z,6.70
2017-08-28T11:06:00.542Z,6.50
2017-08-28T11:08:34.376Z,7.07
2017-08-28T11:11:07.895Z,7.43
2017-08-28T11:13:42.143Z,6.43
2017-08-28T11:16:16.515Z,6.80
2017-08-28T11:18:50.057Z,6.90
2017-08-28T11:21:24.241Z,6.90
2017-08-28T11:23:58.103Z,6.43
2017-08-28T11:26:32.499Z,7.30
2017-08-28T11:29:06.930Z,7.30
2017-08-28T11:31:41.251Z,6.60
2017-08-28T11:34:15.536Z,7.07
2017-08-28T11:36:49.733Z,6.87
2017-08-28T11:39:23.585Z,6.93
2017-08-28T11:41:57.589Z,6.20
2017-08-28T11:44:31.808Z,6.80
2017-08-28T11:47:06.747Z,7.17
2017-08-28T11:49:40.315Z,7.63
2017-08-28T11:52:14.219Z,7.20
2017-08-28T11:54:48.213Z,6.33
2017-08-28T11:57:22.289Z,7.90
2017-08-28T11:59:56.356Z,7.77
2017-08-28T12:02:30.496Z,7.27
2017-08-28T12:05:04.208Z,6.93
2017-08-28T12:07:38.667Z,7.30
2017-08-28T12:10:12.804Z,7.83
2017-08-28T12:12:46.758Z,6.80
2017-08-28T12:15:21.037Z,7.23
2017-08-28T12:17:55.063Z,6.83
2017-08-28T12:20:28.456Z,6.37
2017-08-28T12:23:02.549Z,6.20
2017-08-28T12:25:36.659Z,6.87
2017-08-28T12:28:11.933Z,6.97
2017-08-28T12:30:45.691Z,7.20
2017-08-28T12:33:19.543Z,7.07
2017-08-28T12:35:53.660Z,7.00
2017-08-28T12:38:27.929Z,7.17
2017-08-28T12:41:01.901Z,7.00
2017-08-28T12:43:36.017Z,6.80
2017-08-28T12:46:10.101Z,7.50
2017-08-28T12:48:44.337Z,6.30
2017-08-28T12:51:18.530Z,7.30
2017-08-28T12:53:52.247Z,7.20
2017-08-28T12:56:25.920Z,7.20
2017-08-28T12:59:00.169Z,7.10
2017-08-28T13:01:34.305Z,7.83
2017-08-28T13:04:08.504Z,7.70
2017-08-28T13:06:42.612Z,6.90
2017-08-28T13:09:16.755Z,6.73
2017-08-28T13:11:50.329Z,6.43
2017-08-28T13:14:24.068Z,6.50
2017-08-28T13:16:57.781Z,6.93
2017-08-28T13:19:31.235Z,6.87
2017-08-28T13:22:05.520Z,7.30
2017-08-28T13:24:39.401Z,7.20
2017-08-28T13:27:13.415Z,7.90
2017-08-28T13:29:47.764Z,7.30
2017-08-28T13:32:21.904Z,7.13
2017-08-28T13:34:56.139Z,8.03
2017-08-28T13:37:30.401Z,8.00
2017-08-28T13:40:04.348Z,8.00
2017-08-28T13:42:38.360Z,8.03
2017-08-28T13:45:12.567Z,7.70
2017-08-28T13:47:46.564Z,7.60
2017-08-28T13:50:20.462Z,7.83
2017-08-28T13:52:54.592Z,7.80
2017-08-28T13:55:29.552Z,7.97
2017-08-28T13:58:03.488Z,8.00
2017-08-28T14:00:37.974Z,8.60
2017-08-28T14:03:11.639Z,7.73
2017-08-28T14:05:45.810Z,8.93
2017-08-28T14:08:20.131Z,8.37
2017-08-28T14:10:54.015Z,9.20
2017-08-28T14:13:28.051Z,7.53
2017-08-28T14:16:02.348Z,8.30
2017-08-28T14:18:36.537Z,7.27
2017-08-28T14:21:10.437Z,7.87
2017-08-28T14:23:44.548Z,7.80
2017-08-28T14:26:18.017Z,8.13
2017-08-28T14:28:52.057Z,8.43
2017-08-28T14:31:26.376Z,8.03
2017-08-28T14:34:00.202Z,7.97
2017-08-28T14:36:33.893Z,7.87
2017-08-28T14:39:08.385Z,7.73
2017-08-28T14:41:42.304Z,8.00
2017-08-28T14:44:16.955Z,7.60
2017-08-28T14:46:52.147Z,8.97
2017-08-28T14:49:26.706Z,8.47
2017-08-28T14:52:00.916Z,8.30
2017-08-28T14:54:35.020Z,8.50
2017-08-28T14:57:09.145Z,8.30
2017-08-28T14:59:43.666Z,7.80
2017-08-28T15:02:17.483Z,8.53
2017-08-28T15:04:51.699Z,8.90
2017-08-28T15:07:25.900Z,8.10
2017-08-28T15:09:59.896Z,7.57
2017-08-28T15:12:34.600Z,8.20
2017-08-28T15:15:08.816Z,8.30
2017-08-28T15:17:42.800Z,8.87
2017-08-28T15:20:16.735Z,8.20
2017-08-28T15:22:51.045Z,8.87
2017-08-28T15:25:24.740Z,9.03
2017-08-28T15:27:58.942Z,8.40
2017-08-28T15:30:32.869Z,9.20
2017-08-28T15:33:07.197Z,9.40
2017-08-28T15:35:41.096Z,9.60
2017-08-28T15:38:15.628Z,8.80
2017-08-28T15:40:49.865Z,8.90
2017-08-28T15:43:23.572Z,10.40
2017-08-28T15:45:57.970Z,9.50
2017-08-28T15:48:32.443Z,9.30
2017-08-28T15:51:06.804Z,9.37
2017-08-28T15:53:40.708Z,9.47
2017-08-28T15:56:14.773Z,9.47
2017-08-28T15:58:48.467Z,9.77
2017-08-28T16:01:23.054Z,9.93
2017-08-28T16:03:57.532Z,9.50
2017-08-28T16:06:31.599Z,9.37
2017-08-28T16:09:06.826Z,9.70
2017-08-28T16:11:41.333Z,9.83
2017-08-28T16:14:15.803Z,9.07
2017-08-28T16:16:49.890Z,8.90
2017-08-28T16:19:23.532Z,9.87
2017-08-28T16:21:57.801Z,9.83
2017-08-28T16:24:32.141Z,10.03
2017-08-28T16:27:06.485Z,13.47
2017-08-28T16:29:40.815Z,9.97
2017-08-28T16:32:15.211Z,9.43
2017-08-28T16:34:48.984Z,10.30
2017-08-28T16:37:23.236Z,9.97
2017-08-28T16:39:57.256Z,9.80
2017-08-28T16:42:31.431Z,9.80
2017-08-28T16:45:05.662Z,9.87
2017-08-28T16:47:40.079Z,9.80
2017-08-28T16:50:13.829Z,9.80
2017-08-28T16:52:47.672Z,9.77
2017-08-28T16:55:21.848Z,9.50
2017-08-28T16:57:56.106Z,9.90
2017-08-28T17:00:30.452Z,10.53
2017-08-28T17:03:04.781Z,10.33
2017-08-28T17:05:39.169Z,10.27
2017-08-28T17:08:14.170Z,10.70
2017-08-28T17:10:48.622Z,9.77
2017-08-28T17:13:22.781Z,10.17
2017-08-28T17:15:57.488Z,10.10
2017-08-28T17:18:31.364Z,9.93
2017-08-28T17:21:05.484Z,10.23
2017-08-28T17:23:55.115Z,10.23
2017-08-28T17:26:28.710Z,9.23
2017-08-28T17:29:02.868Z,10.33
2017-08-28T17:31:37.204Z,9.87
2017-08-28T17:34:11.284Z,9.40
2017-08-28T17:36:46.236Z,10.70
2017-08-28T17:39:20.801Z,10.00
2017-08-28T17:41:54.499Z,10.00
2017-08-28T17:44:28.143Z,9.80
2017-08-28T17:47:02.248Z,10.17
2017-08-28T17:49:35.961Z,9.97
2017-08-28T17:52:09.691Z,10.10
2017-08-28T17:54:44.116Z,10.30
2017-08-28T17:57:18.264Z,9.63
2017-08-28T17:59:52.523Z,9.07
2017-08-28T18:02:26.562Z,9.90
2017-08-28T18:05:00.668Z,9.77
2017-08-28T18:07:34.791Z,9.67
2017-08-28T18:10:09.271Z,8.80
2017-08-28T18:12:43.720Z,9.40
2017-08-28T18:15:17.696Z,9.63
2017-08-28T18:17:51.633Z,9.33
2017-08-28T18:20:25.628Z,9.43
2017-08-28T18:23:00.011Z,9.47
2017-08-28T18:25:33.895Z,9.47
2017-08-28T18:28:08.772Z,9.33
2017-08-28T18:30:42.848Z,9.47
2017-08-28T18:33:18.359Z,9.30
2017-08-28T18:35:52.722Z,9.20
2017-08-28T18:38:27.084Z,9.00
2017-08-28T18:41:01.023Z,9.10
2017-08-28T18:43:34.581Z,9.07
2017-08-28T18:46:08.697Z,8.83
2017-08-28T18:48:42.901Z,9.43
2017-08-28T18:51:16.848Z,8.97
2017-08-28T18:53:51.344Z,9.00
2017-08-28T18:56:26.144Z,9.10
2017-08-28T18:59:00.013Z,8.80
2017-08-28T19:01:33.668Z,9.50
2017-08-28T19:04:07.783Z,9.37
2017-08-28T19:06:41.543Z,9.00
2017-08-28T19:09:15.100Z,9.40
2017-08-28T19:11:49.312Z,8.83
2017-08-28T19:14:23.163Z,8.70
2017-08-28T19:16:57.241Z,8.93
2017-08-28T19:19:31.683Z,9.47
2017-08-28T19:22:06.740Z,9.43
2017-08-28T19:24:40.827Z,9.70
2017-08-28T19:27:15.233Z,9.67
2017-08-28T19:29:49.148Z,9.57
2017-08-28T19:32:23.105Z,9.63
2017-08-28T19:34:58.755Z,9.10
2017-08-28T19:37:36.286Z,9.17
2017-08-28T19:40:09.805Z,9.80
2017-08-28T19:42:43.669Z,10.40
2017-08-28T19:45:17.849Z,9.17
2017-08-28T19:47:52.811Z,9.27
2017-08-28T19:50:26.509Z,9.77
2017-08-28T19:53:00.797Z,9.33
2017-08-28T19:55:35.019Z,10.40
2017-08-28T19:58:09.236Z,9.80
2017-08-28T20:00:44.547Z,9.93
2017-08-28T20:03:18.834Z,10.07
2017-08-28T20:05:52.877Z,10.10
2017-08-28T20:08:27.549Z,9.93
2017-08-28T20:11:01.536Z,10.10
2017-08-28T20:13:35.547Z,10.20
2017-08-28T20:16:09.549Z,10.37
2017-08-28T20:18:43.529Z,11.00
2017-08-28T20:21:17.222Z,10.90
2017-08-28T20:23:51.548Z,12.70
2017-08-28T20:26:25.917Z,12.70
2017-08-28T20:29:01.100Z,11.50
2017-08-28T20:31:35.485Z,12.53
2017-08-28T20:34:09.861Z,11.57
2017-08-28T20:36:44.286Z,11.57
2017-08-28T20:39:19.683Z,11.30
2017-08-28T20:41:54.240Z,11.80
2017-08-28T20:44:27.901Z,11.40
2017-08-28T20:47:02.656Z,10.60
2017-08-28T20:49:36.197Z,11.30
2017-08-28T20:52:10.710Z,11.13
2017-08-28T20:54:45.838Z,11.50
2017-08-28T20:57:19.834Z,12.27
2017-08-28T20:59:53.717Z,12.23
2017-08-28T21:02:29.168Z,12.27
2017-08-28T21:05:03.430Z,12.03
2017-08-28T21:07:37.831Z,14.07
2017-08-28T21:10:11.686Z,12.80
2017-08-28T21:12:45.904Z,13.20
2017-08-28T21:15:21.021Z,13.17
2017-08-28T21:17:56.190Z,13.30
2017-08-28T21:20:30.544Z,13.10
2017-08-28T21:23:04.815Z,12.90
2017-08-28T21:25:38.282Z,12.10
2017-08-28T21:28:14.087Z,12.73
2017-08-28T21:30:50.001Z,11.40
2017-08-28T21:33:24.874Z,10.87
2017-08-28T21:35:58.837Z,10.20
2017-08-28T21:38:34.181Z,10.30
2017-08-28T21:41:08.589Z,9.63
2017-08-28T21:43:43.015Z,10.27
2017-08-28T21:46:16.957Z,9.40
2017-08-28T21:48:51.417Z,9.03
2017-08-28T21:51:25.768Z,8.80
2017-08-28T21:54:00.669Z,9.20
2017-08-28T21:56:35.061Z,9.03
2017-08-28T21:59:10.452Z,8.80
2017-08-28T22:01:44.813Z,9.13
2017-08-28T22:04:19.125Z,9.97
2017-08-28T22:06:54.012Z,9.60
2017-08-28T22:09:28.607Z,8.90
2017-08-28T22:12:02.450Z,9.17
2017-08-28T22:14:36.920Z,9.50
2017-08-28T22:17:10.521Z,8.23
2017-08-28T22:19:44.753Z,8.10
2017-08-28T22:22:19.740Z,8.70
2017-08-28T22:24:55.131Z,9.47
2017-08-28T22:27:29.383Z,8.10
2017-08-28T22:30:03.484Z,8.47
2017-08-28T22:32:37.575Z,8.30
2017-08-28T22:35:11.660Z,8.00
2017-08-28T22:37:45.238Z,7.53
2017-08-28T22:40:19.733Z,8.30
2017-08-28T22:42:54.282Z,7.70
2017-08-28T22:45:29.129Z,7.63
2017-08-28T22:48:03.517Z,8.00
2017-08-28T22:50:37.576Z,7.60
2017-08-28T22:53:11.480Z,7.90
2017-08-28T22:55:46.577Z,7.40
2017-08-28T22:58:20.695Z,7.50
2017-08-28T23:00:54.856Z,8.10
2017-08-28T23:03:29.329Z,7.30
2017-08-28T23:06:02.974Z,7.50
2017-08-28T23:08:37.274Z,7.17
2017-08-28T23:11:11.825Z,7.17
2017-08-28T23:13:45.853Z,6.50
2017-08-28T23:16:19.940Z,7.43
2017-08-28T23:18:53.976Z,6.27
2017-08-28T23:21:27.954Z,6.20
2017-08-28T23:24:02.435Z,5.80
2017-08-28T23:26:36.792Z,6.20
2017-08-28T23:29:12.037Z,5.50
2017-08-28T23:31:46.004Z,6.07
2017-08-28T23:34:19.936Z,6.60
2017-08-28T23:36:53.840Z,6.10
2017-08-28T23:39:28.418Z,5.17
2017-08-28T23:42:02.886Z,4.87
2017-08-28T23:44:36.671Z,5.13
2017-08-28T23:47:10.801Z,4.60
2017-08-28T23:49:45.352Z,5.40
2017-08-28T23:52:19.538Z,5.20
2017-08-28T23:54:53.739Z,4.87
2017-08-28T23:57:27.785Z,5.60
